Wetterstation Vordersexau
Wetterdaten: Woche 06.02.23 - 12.02.23 (KW6)
Datum Zeit Temp. A. Feuchte A. Luftdruck Regen Wind Richtung Taupunkt Windchill Windben
06.02.2023 00:00 3,2 C 99 % 1032,5 hPa 0,0 l/m 0,0 km/h (0 Bft) N 3,1 C 3,2 C 0,0 km/h (0 Bft)
06.02.2023 01:00 3,4 C 99 % 1032,3 hPa 0,3 l/m 0,0 km/h (0 Bft) N 3,3 C 3,4 C 0,0 km/h (0 Bft)
06.02.2023 02:00 3,2 C 99 % 1032,3 hPa 0,0 l/m 0,0 km/h (0 Bft) N-NW 3,1 C 3,2 C 0,0 km/h (0 Bft)
06.02.2023 03:00 2,4 C 99 % 1032,3 hPa 0,0 l/m 1,1 km/h (1 Bft) N 2,3 C 2,4 C 2,5 km/h (1 Bft)
06.02.2023 04:00 0,4 C 99 % 1032,3 hPa 0,0 l/m 0,0 km/h (0 Bft) N-NO 0,3 C 0,4 C 0,0 km/h (0 Bft)
06.02.2023 05:00 0,0 C 99 % 1032,6 hPa 0,0 l/m 1,1 km/h (1 Bft) N -0,1 C 0,0 C 2,5 km/h (1 Bft)
06.02.2023 06:00 0,5 C 99 % 1032,2 hPa 0,0 l/m 0,0 km/h (0 Bft) N-NO 0,4 C 0,5 C 0,0 km/h (0 Bft)
06.02.2023 07:00 1,0 C 99 % 1032,3 hPa 0,0 l/m 2,5 km/h (1 Bft) W 0,9 C 1,0 C 3,6 km/h (1 Bft)
06.02.2023 08:00 1,0 C 99 % 1032,5 hPa 0,0 l/m 1,1 km/h (1 Bft) N 0,9 C 1,0 C 3,6 km/h (1 Bft)
06.02.2023 09:00 0,9 C 99 % 1032,5 hPa 0,0 l/m 0,0 km/h (0 Bft) O-NO 0,8 C 0,9 C 0,0 km/h (0 Bft)
06.02.2023 10:00 3,2 C 99 % 1032,2 hPa 0,0 l/m 2,5 km/h (1 Bft) O-NO 3,1 C 3,2 C 6,1 km/h (2 Bft)
06.02.2023 11:00 4,9 C 79 % 1032,0 hPa 0,0 l/m 3,6 km/h (1 Bft) NO 1,6 C 4,9 C 6,1 km/h (2 Bft)
06.02.2023 12:00 4,8 C 74 % 1031,3 hPa 0,0 l/m 5,0 km/h (1 Bft) N-NO 0,6 C 4,8 C 9,7 km/h (2 Bft)
06.02.2023 13:00 4,6 C 73 % 1031,0 hPa 0,0 l/m 2,5 km/h (1 Bft) NO 0,2 C 4,6 C 3,6 km/h (1 Bft)
06.02.2023 14:00 5,4 C 71 % 1030,5 hPa 0,0 l/m 5,0 km/h (1 Bft) O-NO 0,6 C 5,4 C 7,2 km/h (2 Bft)
06.02.2023 15:00 4,5 C 68 % 1030,5 hPa 0,0 l/m 3,6 km/h (1 Bft) N-NO -0,9 C 4,5 C 7,2 km/h (2 Bft)
06.02.2023 16:00 3,5 C 71 % 1030,7 hPa 0,0 l/m 1,1 km/h (1 Bft) O-NO -1,3 C 3,5 C 3,6 km/h (1 Bft)
06.02.2023 17:00 2,8 C 75 % 1030,9 hPa 0,0 l/m 3,6 km/h (1 Bft) O-NO -1,2 C 2,8 C 6,1 km/h (2 Bft)
06.02.2023 18:00 2,5 C 76 % 1031,7 hPa 0,0 l/m 1,1 km/h (1 Bft) N -1,3 C 2,5 C 2,5 km/h (1 Bft)
06.02.2023 19:00 1,7 C 70 % 1031,0 hPa 0,0 l/m 0,0 km/h (0 Bft) O -3,2 C 1,7 C 2,5 km/h (1 Bft)
06.02.2023 20:00 1,7 C 74 % 1030,3 hPa 0,0 l/m 1,1 km/h (1 Bft) N -2,4 C 1,7 C 2,5 km/h (1 Bft)
06.02.2023 21:00 1,5 C 77 % 1030,2 hPa 0,0 l/m 0,0 km/h (0 Bft) O-NO -2,1 C 1,5 C 2,5 km/h (1 Bft)
06.02.2023 22:00 1,1 C 78 % 1029,7 hPa 0,0 l/m 1,1 km/h (1 Bft) NO -2,3 C 1,1 C 3,6 km/h (1 Bft)
06.02.2023 23:00 1,5 C 78 % 1029,2 hPa 0,0 l/m 1,1 km/h (1 Bft) NO -1,9 C 1,5 C 2,5 km/h (1 Bft)
07.02.2023 00:00 1,3 C 78 % 1028,7 hPa 0,0 l/m 1,1 km/h (1 Bft) NO -2,1 C 1,3 C 2,5 km/h (1 Bft)
07.02.2023 01:00 1,9 C 70 % 1028,6 hPa 0,0 l/m 3,6 km/h (1 Bft) O-SO -3,0 C 1,9 C 6,1 km/h (2 Bft)
07.02.2023 02:00 0,9 C 69 % 1028,4 hPa 0,0 l/m 1,1 km/h (1 Bft) O-NO -4,1 C 0,9 C 6,1 km/h (2 Bft)
07.02.2023 03:00 0,3 C 68 % 1028,0 hPa 0,0 l/m 8,6 km/h (2 Bft) N-NO -4,9 C -1,9 C 14,8 km/h (3 Bft)
07.02.2023 04:00 -0,1 C 66 % 1028,2 hPa 0,0 l/m 3,6 km/h (1 Bft) O-SO -5,7 C -0,1 C 7,2 km/h (2 Bft)
07.02.2023 05:00 0,0 C 65 % 1028,8 hPa 0,0 l/m 6,1 km/h (2 Bft) NW -5,8 C 0,0 C 11,2 km/h (2 Bft)
07.02.2023 06:00 -0,5 C 66 % 1029,2 hPa 0,0 l/m 6,1 km/h (2 Bft) W-NW -6,1 C -0,5 C 7,2 km/h (2 Bft)
07.02.2023 07:00 -1,8 C 73 % 1030,0 hPa 0,0 l/m 1,1 km/h (1 Bft) W-NW -6,0 C -1,8 C 3,6 km/h (1 Bft)
07.02.2023 08:00 -2,8 C 80 % 1030,3 hPa 0,0 l/m 1,1 km/h (1 Bft) W-NW -5,8 C -2,8 C 2,5 km/h (1 Bft)
07.02.2023 09:00 -0,4 C 75 % 1031,0 hPa 0,0 l/m 2,5 km/h (1 Bft) W-SW -4,3 C -0,4 C 2,5 km/h (1 Bft)
07.02.2023 10:00 0,9 C 72 % 1031,5 hPa 0,0 l/m 3,6 km/h (1 Bft) NW -3,6 C 0,9 C 3,6 km/h (1 Bft)
07.02.2023 11:00 2,3 C 66 % 1031,8 hPa 0,0 l/m 2,5 km/h (1 Bft) W-SW -3,4 C 2,3 C 3,6 km/h (1 Bft)
07.02.2023 12:00 3,2 C 65 % 1031,4 hPa 0,0 l/m 5,0 km/h (1 Bft) W -2,7 C 3,2 C 6,1 km/h (2 Bft)
07.02.2023 13:00 4,8 C 61 % 1030,7 hPa 0,0 l/m 6,1 km/h (2 Bft) N-NW -2,1 C 4,8 C 7,2 km/h (2 Bft)
07.02.2023 14:00 5,5 C 62 % 1030,7 hPa 0,0 l/m 5,0 km/h (1 Bft) NW -1,2 C 5,5 C 9,7 km/h (2 Bft)
07.02.2023 15:00 5,7 C 66 % 1030,8 hPa 0,0 l/m 5,0 km/h (1 Bft) W -0,1 C 5,7 C 9,7 km/h (2 Bft)
07.02.2023 16:00 5,3 C 66 % 1030,9 hPa 0,0 l/m 2,5 km/h (1 Bft) W-SW -0,5 C 5,3 C 6,1 km/h (2 Bft)
07.02.2023 17:00 2,2 C 77 % 1031,1 hPa 0,0 l/m 2,5 km/h (1 Bft) N -1,4 C 2,2 C 3,6 km/h (1 Bft)
07.02.2023 18:00 0,4 C 84 % 1031,5 hPa 0,0 l/m 0,0 km/h (0 Bft) W-SW -2,0 C 0,4 C 0,0 km/h (0 Bft)
07.02.2023 19:00 -0,7 C 88 % 1031,7 hPa 0,0 l/m 2,5 km/h (1 Bft) N -2,4 C -0,7 C 2,5 km/h (1 Bft)
07.02.2023 20:00 -2,2 C 91 % 1031,5 hPa 0,0 l/m 0,0 km/h (0 Bft) N -3,5 C -2,2 C 0,0 km/h (0 Bft)
07.02.2023 21:00 -2,4 C 93 % 1031,5 hPa 0,0 l/m 0,0 km/h (0 Bft) N -3,4 C -2,4 C 0,0 km/h (0 Bft)
07.02.2023 22:00 -2,1 C 87 % 1031,9 hPa 0,0 l/m 0,0 km/h (0 Bft) N -4,0 C -2,1 C 0,0 km/h (0 Bft)
07.02.2023 23:00 -3,2 C 91 % 1031,3 hPa 0,0 l/m 0,0 km/h (0 Bft) SO -4,5 C -3,2 C 0,0 km/h (0 Bft)
08.02.2023 00:00 -3,9 C 90 % 1031,1 hPa 0,0 l/m 3,6 km/h (1 Bft) SO -5,3 C -3,9 C 6,1 km/h (2 Bft)
08.02.2023 01:00 -4,7 C 89 % 1030,9 hPa 0,0 l/m 0,0 km/h (0 Bft) N -6,2 C -4,7 C 0,0 km/h (0 Bft)
08.02.2023 02:00 -4,5 C 93 % 1030,5 hPa 0,0 l/m 0,0 km/h (0 Bft) N -5,5 C -4,5 C 0,0 km/h (0 Bft)
08.02.2023 03:00 -4,8 C 94 % 1030,1 hPa 0,0 l/m 0,0 km/h (0 Bft) N -5,6 C -4,8 C 0,0 km/h (0 Bft)
08.02.2023 04:00 -5,0 C 91 % 1030,0 hPa 0,0 l/m 0,0 km/h (0 Bft) N -6,2 C -5,0 C 2,5 km/h (1 Bft)
08.02.2023 05:00 -5,3 C 91 % 1029,7 hPa 0,0 l/m 0,0 km/h (0 Bft) O -6,5 C -5,3 C 2,5 km/h (1 Bft)
08.02.2023 06:00 -6,1 C 92 % 1029,5 hPa 0,0 l/m 1,1 km/h (1 Bft) O-NO -7,2 C -6,1 C 3,6 km/h (1 Bft)
08.02.2023 07:00 -6,3 C 91 % 1029,8 hPa 0,0 l/m 1,1 km/h (1 Bft) N -7,5 C -6,3 C 2,5 km/h (1 Bft)
08.02.2023 08:00 -6,4 C 91 % 1030,4 hPa 0,0 l/m 0,0 km/h (0 Bft) N -7,6 C -6,4 C 0,0 km/h (0 Bft)
08.02.2023 09:00 -2,0 C 79 % 1030,4 hPa 0,0 l/m 0,0 km/h (0 Bft) NO -5,1 C -2,0 C 0,0 km/h (0 Bft)
08.02.2023 10:00 -1,8 C 80 % 1030,3 hPa 0,0 l/m 1,1 km/h (1 Bft) W-SW -4,8 C -1,8 C 2,5 km/h (1 Bft)
08.02.2023 11:00 -0,6 C 75 % 1030,2 hPa 0,0 l/m 3,6 km/h (1 Bft) W-SW -4,5 C -0,6 C 6,1 km/h (2 Bft)
08.02.2023 12:00 1,7 C 66 % 1029,3 hPa 0,0 l/m 2,5 km/h (1 Bft) W-SW -4,0 C 1,7 C 6,1 km/h (2 Bft)
08.02.2023 13:00 4,4 C 62 % 1028,7 hPa 0,0 l/m 1,1 km/h (1 Bft) W -2,2 C 4,4 C 2,5 km/h (1 Bft)
08.02.2023 14:00 4,6 C 57 % 1028,1 hPa 0,0 l/m 7,2 km/h (2 Bft) W -3,2 C 3,9 C 11,2 km/h (2 Bft)
08.02.2023 15:00 5,5 C 53 % 1027,9 hPa 0,0 l/m 3,6 km/h (1 Bft) W-SW -3,3 C 5,5 C 3,6 km/h (1 Bft)
08.02.2023 16:00 4,8 C 60 % 1027,9 hPa 0,0 l/m 2,5 km/h (1 Bft) W-SW -2,3 C 4,8 C 6,1 km/h (2 Bft)
08.02.2023 17:00 2,2 C 66 % 1028,0 hPa 0,0 l/m 1,1 km/h (1 Bft) N -3,5 C 2,2 C 2,5 km/h (1 Bft)
08.02.2023 18:00 -0,1 C 77 % 1028,2 hPa 0,0 l/m 0,0 km/h (0 Bft) N -3,6 C -0,1 C 2,5 km/h (1 Bft)
08.02.2023 19:00 -1,3 C 82 % 1028,5 hPa 0,0 l/m 0,0 km/h (0 Bft) N -4,0 C -1,3 C 2,5 km/h (1 Bft)
08.02.2023 20:00 -1,8 C 82 % 1028,3 hPa 0,0 l/m 0,0 km/h (0 Bft) N -4,5 C -1,8 C 2,5 km/h (1 Bft)
08.02.2023 21:00 -2,7 C 85 % 1028,2 hPa 0,0 l/m 0,0 km/h (0 Bft) O-NO -4,9 C -2,7 C 2,5 km/h (1 Bft)
08.02.2023 22:00 -3,1 C 84 % 1028,0 hPa 0,0 l/m 1,1 km/h (1 Bft) O-NO -5,4 C -3,1 C 2,5 km/h (1 Bft)
08.02.2023 23:00 -3,2 C 84 % 1028,3 hPa 0,0 l/m 1,1 km/h (1 Bft) N -5,5 C -3,2 C 2,5 km/h (1 Bft)
09.02.2023 00:00 -4,1 C 88 % 1028,2 hPa 0,0 l/m 0,0 km/h (0 Bft) O-NO -5,8 C -4,1 C 0,0 km/h (0 Bft)
09.02.2023 01:00 -4,7 C 90 % 1028,0 hPa 0,0 l/m 1,1 km/h (1 Bft) N -6,1 C -4,7 C 2,5 km/h (1 Bft)
09.02.2023 02:00 -4,7 C 90 % 1027,8 hPa 0,0 l/m 0,0 km/h (0 Bft) N -6,1 C -4,7 C 0,0 km/h (0 Bft)
09.02.2023 03:00 -4,6 C 90 % 1027,7 hPa 0,0 l/m 0,0 km/h (0 Bft) N -6,0 C -4,6 C 2,5 km/h (1 Bft)
09.02.2023 04:00 -4,5 C 87 % 1027,9 hPa 0,0 l/m 0,0 km/h (0 Bft) N -6,3 C -4,5 C 2,5 km/h (1 Bft)
09.02.2023 05:00 -5,4 C 91 % 1028,0 hPa 0,0 l/m 0,0 km/h (0 Bft) O-NO -6,6 C -5,4 C 2,5 km/h (1 Bft)
09.02.2023 06:00 -5,7 C 91 % 1027,9 hPa 0,0 l/m 1,1 km/h (1 Bft) N -6,9 C -5,7 C 2,5 km/h (1 Bft)
09.02.2023 07:00 -5,7 C 92 % 1028,3 hPa 0,0 l/m 0,0 km/h (0 Bft) N -6,8 C -5,7 C 2,5 km/h (1 Bft)
09.02.2023 08:00 -5,6 C 90 % 1028,7 hPa 0,0 l/m 0,0 km/h (0 Bft) O-SO -7,0 C -5,6 C 2,5 km/h (1 Bft)
09.02.2023 09:00 -1,8 C 82 % 1028,8 hPa 0,0 l/m 1,1 km/h (1 Bft) N -4,5 C -1,8 C 3,6 km/h (1 Bft)
09.02.2023 10:00 0,9 C 73 % 1028,9 hPa 0,0 l/m 0,0 km/h (0 Bft) W -3,4 C 0,9 C 0,0 km/h (0 Bft)
09.02.2023 11:00 0,5 C 72 % 1029,4 hPa 0,0 l/m 2,5 km/h (1 Bft) SO -3,9 C 0,5 C 3,6 km/h (1 Bft)
09.02.2023 12:00 3,1 C 67 % 1028,9 hPa 0,0 l/m 3,6 km/h (1 Bft) W -2,4 C 3,1 C 6,1 km/h (2 Bft)
09.02.2023 13:00 5,6 C 59 % 1028,1 hPa 0,0 l/m 1,1 km/h (1 Bft) S-SW -1,8 C 5,6 C 2,5 km/h (1 Bft)
09.02.2023 14:00 6,3 C 59 % 1027,8 hPa 0,0 l/m 3,6 km/h (1 Bft) W -1,1 C 6,3 C 6,1 km/h (2 Bft)
09.02.2023 15:00 6,4 C 60 % 1028,0 hPa 0,0 l/m 5,0 km/h (1 Bft) W-NW -0,8 C 6,4 C 6,1 km/h (2 Bft)
09.02.2023 16:00 6,8 C 61 % 1028,2 hPa 0,0 l/m 2,5 km/h (1 Bft) N -0,2 C 6,8 C 3,6 km/h (1 Bft)
09.02.2023 17:00 3,7 C 69 % 1028,9 hPa 0,0 l/m 0,0 km/h (0 Bft) N -1,4 C 3,7 C 0,0 km/h (0 Bft)
09.02.2023 18:00 0,2 C 84 % 1029,1 hPa 0,0 l/m 0,0 km/h (0 Bft) N -2,2 C 0,2 C 0,0 km/h (0 Bft)
09.02.2023 19:00 -0,5 C 86 % 1030,0 hPa 0,0 l/m 0,0 km/h (0 Bft) N -2,5 C -0,5 C 0,0 km/h (0 Bft)
09.02.2023 20:00 -0,9 C 87 % 1030,3 hPa 0,0 l/m 0,0 km/h (0 Bft) N -2,8 C -0,9 C 2,5 km/h (1 Bft)
09.02.2023 21:00 -1,9 C 88 % 1030,9 hPa 0,0 l/m 0,0 km/h (0 Bft) O -3,6 C -1,9 C 0,0 km/h (0 Bft)
09.02.2023 22:00 -2,4 C 90 % 1031,1 hPa 0,0 l/m 1,1 km/h (1 Bft) O -3,8 C -2,4 C 2,5 km/h (1 Bft)
09.02.2023 23:00 -3,0 C 91 % 1032,0 hPa 0,0 l/m 1,1 km/h (1 Bft) N -4,3 C -3,0 C 2,5 km/h (1 Bft)
10.02.2023 00:00 -2,6 C 92 % 1032,5 hPa 0,0 l/m 0,0 km/h (0 Bft) O -3,7 C -2,6 C 2,5 km/h (1 Bft)
10.02.2023 01:00 -3,2 C 92 % 1032,8 hPa 0,0 l/m 1,1 km/h (1 Bft) N -4,3 C -3,2 C 2,5 km/h (1 Bft)
10.02.2023 02:00 -3,3 C 92 % 1032,7 hPa 0,0 l/m 0,0 km/h (0 Bft) N -4,4 C -3,3 C 0,0 km/h (0 Bft)
10.02.2023 03:00 -3,8 C 92 % 1033,1 hPa 0,0 l/m 0,0 km/h (0 Bft) N -4,9 C -3,8 C 2,5 km/h (1 Bft)
10.02.2023 04:00 -4,0 C 93 % 1033,4 hPa 0,0 l/m 0,0 km/h (0 Bft) O-SO -5,0 C -4,0 C 0,0 km/h (0 Bft)
10.02.2023 05:00 -3,6 C 92 % 1033,8 hPa 0,0 l/m 1,1 km/h (1 Bft) SO -4,7 C -3,6 C 3,6 km/h (1 Bft)
10.02.2023 06:00 -5,0 C 94 % 1033,8 hPa 0,0 l/m 1,1 km/h (1 Bft) N -5,8 C -5,0 C 2,5 km/h (1 Bft)
10.02.2023 07:00 -4,5 C 94 % 1033,9 hPa 0,0 l/m 0,0 km/h (0 Bft) N -5,3 C -4,5 C 0,0 km/h (0 Bft)
10.02.2023 08:00 -4,1 C 93 % 1034,4 hPa 0,0 l/m 0,0 km/h (0 Bft) O -5,1 C -4,1 C 2,5 km/h (1 Bft)
10.02.2023 09:00 -1,3 C 86 % 1034,8 hPa 0,0 l/m 2,5 km/h (1 Bft) SO -3,3 C -1,3 C 6,1 km/h (2 Bft)
10.02.2023 10:00 1,1 C 80 % 1034,8 hPa 0,0 l/m 3,6 km/h (1 Bft) W-NW -2,0 C 1,1 C 6,1 km/h (2 Bft)
10.02.2023 11:00 3,3 C 75 % 1034,6 hPa 0,0 l/m 2,5 km/h (1 Bft) W -0,7 C 3,3 C 3,6 km/h (1 Bft)
10.02.2023 12:00 4,6 C 70 % 1034,3 hPa 0,0 l/m 3,6 km/h (1 Bft) NW -0,4 C 4,6 C 6,1 km/h (2 Bft)
10.02.2023 13:00 6,9 C 66 % 1034,1 hPa 0,0 l/m 2,5 km/h (1 Bft) W 1,0 C 6,9 C 6,1 km/h (2 Bft)
10.02.2023 14:00 7,1 C 63 % 1033,6 hPa 0,0 l/m 2,5 km/h (1 Bft) W 0,5 C 7,1 C 3,6 km/h (1 Bft)
10.02.2023 15:00 5,4 C 65 % 1033,9 hPa 0,0 l/m 3,6 km/h (1 Bft) W -0,6 C 5,4 C 6,1 km/h (2 Bft)
10.02.2023 16:00 5,7 C 67 % 1033,7 hPa 0,0 l/m 1,1 km/h (1 Bft) W 0,1 C 5,7 C 2,5 km/h (1 Bft)
10.02.2023 17:00 4,4 C 70 % 1033,6 hPa 0,0 l/m 1,1 km/h (1 Bft) SW -0,6 C 4,4 C 2,5 km/h (1 Bft)
10.02.2023 18:00 1,1 C 83 % 1034,1 hPa 0,0 l/m 1,1 km/h (1 Bft) N -1,5 C 1,1 C 2,5 km/h (1 Bft)
10.02.2023 19:00 0,2 C 87 % 1034,3 hPa 0,0 l/m 0,0 km/h (0 Bft) N -1,7 C 0,2 C 2,5 km/h (1 Bft)
10.02.2023 20:00 -0,5 C 88 % 1034,7 hPa 0,0 l/m 0,0 km/h (0 Bft) N -2,2 C -0,5 C 2,5 km/h (1 Bft)
10.02.2023 21:00 -1,0 C 89 % 1034,9 hPa 0,0 l/m 0,0 km/h (0 Bft) SO -2,6 C -1,0 C 2,5 km/h (1 Bft)
10.02.2023 22:00 -1,6 C 90 % 1034,6 hPa 0,0 l/m 1,1 km/h (1 Bft) N -3,0 C -1,6 C 2,5 km/h (1 Bft)
10.02.2023 23:00 -1,7 C 90 % 1034,5 hPa 0,0 l/m 0,0 km/h (0 Bft) N -3,1 C -1,7 C 0,0 km/h (0 Bft)
11.02.2023 00:00 -1,9 C 90 % 1034,2 hPa 0,0 l/m 0,0 km/h (0 Bft) N -3,3 C -1,9 C 0,0 km/h (0 Bft)
11.02.2023 01:00 -2,8 C 92 % 1033,8 hPa 0,0 l/m 0,0 km/h (0 Bft) N -3,9 C -2,8 C 2,5 km/h (1 Bft)
11.02.2023 02:00 -3,1 C 92 % 1033,8 hPa 0,0 l/m 0,0 km/h (0 Bft) O-NO -4,2 C -3,1 C 2,5 km/h (1 Bft)
11.02.2023 03:00 -3,2 C 92 % 1033,5 hPa 0,0 l/m 1,1 km/h (1 Bft) N -4,3 C -3,2 C 3,6 km/h (1 Bft)
11.02.2023 04:00 -2,6 C 90 % 1032,9 hPa 0,0 l/m 0,0 km/h (0 Bft) N -4,0 C -2,6 C 0,0 km/h (0 Bft)
11.02.2023 05:00 -3,4 C 92 % 1032,9 hPa 0,0 l/m 0,0 km/h (0 Bft) O-SO -4,5 C -3,4 C 2,5 km/h (1 Bft)
11.02.2023 06:00 -2,2 C 88 % 1032,9 hPa 0,0 l/m 8,6 km/h (2 Bft) N -3,9 C -4,6 C 13,3 km/h (3 Bft)
11.02.2023 07:00 -3,0 C 89 % 1032,6 hPa 0,0 l/m 0,0 km/h (0 Bft) N -4,6 C -3,0 C 0,0 km/h (0 Bft)
11.02.2023 08:00 -2,5 C 89 % 1032,7 hPa 0,0 l/m 0,0 km/h (0 Bft) W -4,1 C -2,5 C 2,5 km/h (1 Bft)
11.02.2023 09:00 -1,2 C 89 % 1033,4 hPa 0,0 l/m 1,1 km/h (1 Bft) W -2,8 C -1,2 C 3,6 km/h (1 Bft)
11.02.2023 10:00 1,4 C 79 % 1033,2 hPa 0,0 l/m 2,5 km/h (1 Bft) W -1,8 C 1,4 C 3,6 km/h (1 Bft)
11.02.2023 11:00 4,1 C 70 % 1033,2 hPa 0,0 l/m 1,1 km/h (1 Bft) N -0,9 C 4,1 C 3,6 km/h (1 Bft)
Min-Datum _ 08.02.23 08.02.23 09.02.23 - 06.02.23 - 08.02.23 08.02.23 06.02.23
_ Min-Zeit 08:37 15:37 03:37 - 00:37 - 08:37 08:37 00:37
Minimum _ -6,4 C 53 % 1027,7 hPa - 0,0 km/h (0 Bft) - -7,6 C -6,4 C 0,0 km/h (0 Bft)
Max-Datum _ 10.02.23 06.02.23 10.02.23 06.02.23 07.02.23 - 06.02.23 10.02.23 07.02.23
_ Max-Zeit 14:37 00:37 21:37 01:37 03:37 - 01:37 14:37 03:37
Maximum _ 7,1 C 99 % 1034,9 hPa 0,3 l/m 8,6 km/h
N-NO (2 Bft)
- 3,3 C 7,1 C 14,8 km/h
N-NO (3 Bft)
Durchschnitt _ -0,0 C 81 % 1031,0 hPa #0,3 l/m 1,5 km/h (1 Bft) W -3,0 C -0,1 C 3,3 km/h (1 Bft)
www.sexauwetter.de